sensor_id;sensor_type;location;lat;lon;timestamp;P1;durP1;ratioP1;P2;durP2;ratioP2
73919;SDS011;62266;53.348;-1.496;2023-04-02T09:28:22;9.63;;;2.58;;
73919;SDS011;62266;53.348;-1.496;2023-04-02T09:34:29;9.85;;;2.13;;
73919;SDS011;62266;53.348;-1.496;2023-04-02T09:37:19;9.73;;;2.17;;
73919;SDS011;62266;53.348;-1.496;2023-04-02T09:40:15;8.57;;;1.80;;
73919;SDS011;62266;53.348;-1.496;2023-04-02T09:43:09;9.15;;;2.70;;
73919;SDS011;62266;53.348;-1.496;2023-04-02T09:46:12;10.57;;;2.00;;
73919;SDS011;62266;53.348;-1.496;2023-04-02T09:49:00;8.73;;;2.15;;
73919;SDS011;62266;53.348;-1.496;2023-04-02T09:51:45;9.65;;;2.22;;
73919;SDS011;62266;53.348;-1.496;2023-04-02T09:54:29;11.40;;;2.13;;
73919;SDS011;62266;53.348;-1.496;2023-04-02T09:57:22;6.35;;;2.20;;
73919;SDS011;62266;53.348;-1.496;2023-04-02T10:00:13;8.80;;;2.97;;
73919;SDS011;62266;53.348;-1.496;2023-04-02T10:03:03;11.52;;;2.30;;
73919;SDS011;62266;53.348;-1.496;2023-04-02T10:08:56;5.97;;;2.20;;
73919;SDS011;62266;53.348;-1.496;2023-04-02T10:11:40;5.82;;;2.10;;
73919;SDS011;62266;53.348;-1.496;2023-04-02T10:14:27;8.77;;;2.20;;
73919;SDS011;62266;53.348;-1.496;2023-04-02T10:20:17;8.85;;;2.63;;
73919;SDS011;62266;53.348;-1.496;2023-04-02T10:23:04;13.65;;;1.98;;
73919;SDS011;62266;53.348;-1.496;2023-04-02T10:29:08;9.30;;;2.43;;
73919;SDS011;62266;53.348;-1.496;2023-04-02T10:40:27;6.82;;;2.03;;
73919;SDS011;62266;53.348;-1.496;2023-04-02T10:46:35;5.22;;;1.92;;
73919;SDS011;62266;53.348;-1.496;2023-04-02T10:52:19;7.07;;;2.25;;
73919;SDS011;62266;53.348;-1.496;2023-04-02T10:55:12;7.90;;;2.13;;
73919;SDS011;62266;53.348;-1.496;2023-04-02T10:58:02;5.20;;;1.80;;
73919;SDS011;62266;53.348;-1.496;2023-04-02T11:00:50;8.40;;;1.85;;
73919;SDS011;62266;53.348;-1.496;2023-04-02T11:03:39;6.65;;;2.10;;
73919;SDS011;62266;53.348;-1.496;2023-04-02T11:06:29;8.82;;;2.15;;
73919;SDS011;62266;53.348;-1.496;2023-04-02T11:09:17;9.25;;;2.72;;
73919;SDS011;62266;53.348;-1.496;2023-04-02T11:12:03;10.33;;;2.20;;
73919;SDS011;62266;53.348;-1.496;2023-04-02T11:14:48;5.75;;;1.58;;
73919;SDS011;62266;53.348;-1.496;2023-04-02T11:17:33;6.95;;;2.00;;
73919;SDS011;62266;53.348;-1.496;2023-04-02T11:23:52;8.35;;;2.10;;
73919;SDS011;62266;53.348;-1.496;2023-04-02T11:26:41;6.43;;;2.33;;
73919;SDS011;62266;53.348;-1.496;2023-04-02T11:29:29;6.47;;;2.40;;
73919;SDS011;62266;53.348;-1.496;2023-04-02T11:35:22;6.28;;;2.20;;
73919;SDS011;62266;53.348;-1.496;2023-04-02T11:40:55;9.30;;;2.27;;
73919;SDS011;62266;53.348;-1.496;2023-04-02T11:52:23;8.68;;;2.78;;
73919;SDS011;62266;53.348;-1.496;2023-04-02T11:55:29;6.70;;;2.10;;
73919;SDS011;62266;53.348;-1.496;2023-04-02T12:06:58;10.70;;;2.50;;
73919;SDS011;62266;53.348;-1.496;2023-04-02T12:10:19;9.10;;;2.30;;
73919;SDS011;62266;53.348;-1.496;2023-04-02T12:13:03;10.18;;;2.25;;
73919;SDS011;62266;53.348;-1.496;2023-04-02T12:15:47;9.90;;;2.78;;
73919;SDS011;62266;53.348;-1.496;2023-04-02T12:18:32;7.15;;;2.60;;
73919;SDS011;62266;53.348;-1.496;2023-04-02T12:21:17;6.65;;;2.03;;
73919;SDS011;62266;53.348;-1.496;2023-04-02T12:24:02;6.67;;;1.90;;
73919;SDS011;62266;53.348;-1.496;2023-04-02T12:26:47;7.90;;;1.77;;
73919;SDS011;62266;53.348;-1.496;2023-04-02T12:29:32;7.70;;;2.78;;
73919;SDS011;62266;53.348;-1.496;2023-04-02T12:38:17;7.60;;;2.73;;
73919;SDS011;62266;53.348;-1.496;2023-04-02T12:41:04;5.55;;;2.53;;
73919;SDS011;62266;53.348;-1.496;2023-04-02T12:44:03;5.75;;;1.80;;
73919;SDS011;62266;53.348;-1.496;2023-04-02T12:47:04;7.68;;;2.53;;
73919;SDS011;62266;53.348;-1.496;2023-04-02T12:49:48;9.05;;;2.40;;
73919;SDS011;62266;53.348;-1.496;2023-04-02T12:52:34;7.47;;;2.07;;
73919;SDS011;62266;53.348;-1.496;2023-04-02T12:55:19;5.88;;;2.00;;
73919;SDS011;62266;53.348;-1.496;2023-04-02T12:58:17;6.93;;;2.10;;
73919;SDS011;62266;53.348;-1.496;2023-04-02T13:01:17;9.23;;;1.90;;
73919;SDS011;62266;53.348;-1.496;2023-04-02T13:04:07;9.50;;;3.15;;
73919;SDS011;62266;53.348;-1.496;2023-04-02T13:06:54;7.53;;;1.90;;
73919;SDS011;62266;53.348;-1.496;2023-04-02T13:09:41;6.82;;;2.33;;
73919;SDS011;62266;53.348;-1.496;2023-04-02T13:15:35;5.72;;;1.60;;
73919;SDS011;62266;53.348;-1.496;2023-04-02T13:18:21;11.18;;;2.40;;
73919;SDS011;62266;53.348;-1.496;2023-04-02T13:21:24;9.33;;;2.53;;
73919;SDS011;62266;53.348;-1.496;2023-04-02T13:24:21;8.02;;;2.00;;
73919;SDS011;62266;53.348;-1.496;2023-04-02T13:27:08;9.30;;;2.15;;
73919;SDS011;62266;53.348;-1.496;2023-04-02T13:29:53;7.93;;;1.77;;
73919;SDS011;62266;53.348;-1.496;2023-04-02T13:32:38;5.80;;;1.77;;
73919;SDS011;62266;53.348;-1.496;2023-04-02T13:35:22;4.67;;;1.93;;
73919;SDS011;62266;53.348;-1.496;2023-04-02T13:38:06;6.90;;;1.80;;
73919;SDS011;62266;53.348;-1.496;2023-04-02T13:40:51;4.35;;;1.60;;
73919;SDS011;62266;53.348;-1.496;2023-04-02T13:43:35;5.80;;;1.60;;
73919;SDS011;62266;53.348;-1.496;2023-04-02T13:46:21;7.25;;;2.35;;
73919;SDS011;62266;53.348;-1.496;2023-04-02T13:49:11;6.10;;;2.00;;
73919;SDS011;62266;53.348;-1.496;2023-04-02T13:51:56;7.00;;;2.13;;
73919;SDS011;62266;53.348;-1.496;2023-04-02T13:54:47;6.03;;;1.95;;
73919;SDS011;62266;53.348;-1.496;2023-04-02T13:57:34;5.50;;;2.33;;
73919;SDS011;62266;53.348;-1.496;2023-04-02T14:00:18;7.57;;;2.78;;
73919;SDS011;62266;53.348;-1.496;2023-04-02T14:03:05;6.97;;;2.30;;
73919;SDS011;62266;53.348;-1.496;2023-04-02T14:12:04;5.50;;;2.20;;
73919;SDS011;62266;53.348;-1.496;2023-04-02T14:17:58;6.60;;;2.13;;
73919;SDS011;62266;53.348;-1.496;2023-04-02T14:21:03;7.53;;;1.98;;
73919;SDS011;62266;53.348;-1.496;2023-04-02T14:33:02;6.17;;;1.87;;
73919;SDS011;62266;53.348;-1.496;2023-04-02T14:36:17;6.30;;;1.90;;
73919;SDS011;62266;53.348;-1.496;2023-04-02T14:42:14;7.90;;;2.03;;
73919;SDS011;62266;53.348;-1.496;2023-04-02T14:45:04;5.78;;;1.83;;
73919;SDS011;62266;53.348;-1.496;2023-04-02T14:47:59;6.03;;;2.27;;
73919;SDS011;62266;53.348;-1.496;2023-04-02T14:50:50;7.07;;;2.05;;
73919;SDS011;62266;53.348;-1.496;2023-04-02T14:57:04;7.38;;;2.00;;
73919;SDS011;62266;53.348;-1.496;2023-04-02T15:00:07;9.80;;;2.17;;
73919;SDS011;62266;53.348;-1.496;2023-04-02T15:03:11;6.33;;;2.00;;
73919;SDS011;62266;53.348;-1.496;2023-04-02T15:06:08;5.90;;;2.20;;
73919;SDS011;62266;53.348;-1.496;2023-04-02T15:08:59;7.70;;;2.22;;
73919;SDS011;62266;53.348;-1.496;2023-04-02T15:12:09;2.67;;;1.75;;
73919;SDS011;62266;53.348;-1.496;2023-04-02T15:15:18;6.13;;;2.30;;
73919;SDS011;62266;53.348;-1.496;2023-04-02T15:18:15;6.93;;;2.20;;
73919;SDS011;62266;53.348;-1.496;2023-04-02T15:30:45;11.43;;;2.90;;
73919;SDS011;62266;53.348;-1.496;2023-04-02T15:33:37;8.00;;;2.40;;
73919;SDS011;62266;53.348;-1.496;2023-04-02T15:36:33;6.88;;;2.20;;
73919;SDS011;62266;53.348;-1.496;2023-04-02T15:42:40;5.07;;;2.33;;
73919;SDS011;62266;53.348;-1.496;2023-04-02T15:45:47;10.13;;;2.53;;
73919;SDS011;62266;53.348;-1.496;2023-04-02T15:58:20;5.18;;;1.80;;
73919;SDS011;62266;53.348;-1.496;2023-04-02T16:10:34;4.53;;;1.80;;
73919;SDS011;62266;53.348;-1.496;2023-04-02T16:16:21;8.32;;;2.22;;
73919;SDS011;62266;53.348;-1.496;2023-04-02T16:25:14;5.47;;;2.00;;
73919;SDS011;62266;53.348;-1.496;2023-04-02T16:31:18;7.47;;;2.20;;
73919;SDS011;62266;53.348;-1.496;2023-04-02T16:40:40;6.80;;;2.20;;
73919;SDS011;62266;53.348;-1.496;2023-04-02T16:52:57;7.07;;;2.30;;
73919;SDS011;62266;53.348;-1.496;2023-04-02T17:08:01;5.80;;;2.20;;
73919;SDS011;62266;53.348;-1.496;2023-04-02T17:11:13;4.03;;;1.98;;
73919;SDS011;62266;53.348;-1.496;2023-04-02T17:14:13;6.70;;;2.03;;
73919;SDS011;62266;53.348;-1.496;2023-04-02T17:17:08;6.40;;;1.83;;
73919;SDS011;62266;53.348;-1.496;2023-04-02T17:19:57;6.43;;;1.70;;
73919;SDS011;62266;53.348;-1.496;2023-04-02T17:22:43;6.13;;;1.98;;
73919;SDS011;62266;53.348;-1.496;2023-04-02T17:25:30;4.00;;;1.42;;
73919;SDS011;62266;53.348;-1.496;2023-04-02T17:28:17;5.20;;;1.60;;
73919;SDS011;62266;53.348;-1.496;2023-04-02T17:31:16;5.97;;;1.85;;
73919;SDS011;62266;53.348;-1.496;2023-04-02T17:34:13;5.37;;;1.60;;
73919;SDS011;62266;53.348;-1.496;2023-04-02T17:37:21;5.78;;;1.88;;
73919;SDS011;62266;53.348;-1.496;2023-04-02T17:40:21;6.75;;;1.95;;
73919;SDS011;62266;53.348;-1.496;2023-04-02T17:43:15;9.77;;;2.22;;
73919;SDS011;62266;53.348;-1.496;2023-04-02T17:46:10;7.65;;;2.30;;
73919;SDS011;62266;53.348;-1.496;2023-04-02T17:49:24;6.37;;;2.00;;
73919;SDS011;62266;53.348;-1.496;2023-04-02T17:55:16;5.50;;;1.77;;
73919;SDS011;62266;53.348;-1.496;2023-04-02T18:57:32;5.87;;;2.80;;
73919;SDS011;62266;53.348;-1.496;2023-04-02T19:00:26;8.30;;;2.45;;
73919;SDS011;62266;53.348;-1.496;2023-04-02T19:23:56;7.70;;;3.28;;
73919;SDS011;62266;53.348;-1.496;2023-04-02T19:26:57;9.00;;;2.80;;
73919;SDS011;62266;53.348;-1.496;2023-04-02T19:33:36;7.25;;;2.72;;
73919;SDS011;62266;53.348;-1.496;2023-04-02T19:36:34;6.72;;;2.30;;
73919;SDS011;62266;53.348;-1.496;2023-04-02T19:39:55;4.53;;;2.22;;
73919;SDS011;62266;53.348;-1.496;2023-04-02T19:42:47;5.80;;;2.40;;
73919;SDS011;62266;53.348;-1.496;2023-04-02T19:45:41;5.82;;;2.42;;
73919;SDS011;62266;53.348;-1.496;2023-04-02T19:48:29;8.05;;;2.60;;
73919;SDS011;62266;53.348;-1.496;2023-04-02T19:52:09;5.03;;;2.50;;
73919;SDS011;62266;53.348;-1.496;2023-04-02T19:54:54;10.68;;;3.17;;
73919;SDS011;62266;53.348;-1.496;2023-04-02T19:57:38;6.33;;;2.80;;
73919;SDS011;62266;53.348;-1.496;2023-04-02T20:00:22;10.20;;;3.20;;
73919;SDS011;62266;53.348;-1.496;2023-04-02T20:03:06;6.00;;;2.63;;
73919;SDS011;62266;53.348;-1.496;2023-04-02T20:05:51;5.35;;;2.58;;
73919;SDS011;62266;53.348;-1.496;2023-04-02T20:08:39;8.45;;;2.95;;
73919;SDS011;62266;53.348;-1.496;2023-04-02T20:11:24;5.20;;;2.37;;
73919;SDS011;62266;53.348;-1.496;2023-04-02T20:14:09;6.50;;;3.08;;
73919;SDS011;62266;53.348;-1.496;2023-04-02T20:16:53;5.03;;;2.47;;
73919;SDS011;62266;53.348;-1.496;2023-04-02T20:19:36;6.03;;;3.15;;
73919;SDS011;62266;53.348;-1.496;2023-04-02T20:22:22;7.85;;;3.00;;
73919;SDS011;62266;53.348;-1.496;2023-04-02T20:25:07;5.23;;;2.60;;
73919;SDS011;62266;53.348;-1.496;2023-04-02T20:27:54;8.60;;;3.13;;
73919;SDS011;62266;53.348;-1.496;2023-04-02T20:30:40;8.82;;;3.20;;
73919;SDS011;62266;53.348;-1.496;2023-04-02T20:33:25;5.18;;;2.78;;
73919;SDS011;62266;53.348;-1.496;2023-04-02T20:36:11;6.45;;;3.10;;
73919;SDS011;62266;53.348;-1.496;2023-04-02T20:38:59;8.60;;;3.20;;
73919;SDS011;62266;53.348;-1.496;2023-04-02T20:41:50;7.53;;;3.10;;
73919;SDS011;62266;53.348;-1.496;2023-04-02T20:44:39;6.07;;;3.00;;
73919;SDS011;62266;53.348;-1.496;2023-04-02T20:47:24;14.88;;;2.92;;
73919;SDS011;62266;53.348;-1.496;2023-04-02T20:50:08;7.57;;;3.38;;
73919;SDS011;62266;53.348;-1.496;2023-04-02T20:52:53;6.20;;;2.70;;
73919;SDS011;62266;53.348;-1.496;2023-04-02T20:55:37;5.53;;;3.13;;
73919;SDS011;62266;53.348;-1.496;2023-04-02T20:58:21;6.20;;;2.50;;
73919;SDS011;62266;53.348;-1.496;2023-04-02T21:03:56;7.20;;;2.53;;
73919;SDS011;62266;53.348;-1.496;2023-04-02T21:06:42;5.93;;;2.10;;
73919;SDS011;62266;53.348;-1.496;2023-04-02T21:09:26;6.05;;;2.70;;
73919;SDS011;62266;53.348;-1.496;2023-04-02T21:12:13;7.38;;;2.10;;
73919;SDS011;62266;53.348;-1.496;2023-04-02T21:14:58;3.72;;;2.13;;
73919;SDS011;62266;53.348;-1.496;2023-04-02T21:17:43;6.28;;;2.13;;
73919;SDS011;62266;53.348;-1.496;2023-04-02T21:20:27;6.73;;;2.17;;
73919;SDS011;62266;53.348;-1.496;2023-04-02T21:23:12;4.95;;;1.85;;
73919;SDS011;62266;53.348;-1.496;2023-04-02T21:25:57;3.58;;;1.60;;
73919;SDS011;62266;53.348;-1.496;2023-04-02T21:28:43;6.38;;;2.28;;
73919;SDS011;62266;53.348;-1.496;2023-04-02T21:31:28;4.68;;;1.85;;
73919;SDS011;62266;53.348;-1.496;2023-04-02T21:34:15;7.77;;;2.37;;
73919;SDS011;62266;53.348;-1.496;2023-04-02T21:37:00;7.45;;;2.28;;
73919;SDS011;62266;53.348;-1.496;2023-04-02T21:39:44;3.50;;;1.98;;
73919;SDS011;62266;53.348;-1.496;2023-04-02T21:42:29;3.97;;;2.10;;
73919;SDS011;62266;53.348;-1.496;2023-04-02T21:45:15;4.68;;;1.88;;
73919;SDS011;62266;53.348;-1.496;2023-04-02T21:48:00;10.23;;;2.50;;
73919;SDS011;62266;53.348;-1.496;2023-04-02T21:50:48;5.15;;;2.58;;
73919;SDS011;62266;53.348;-1.496;2023-04-02T21:53:32;6.50;;;3.03;;
73919;SDS011;62266;53.348;-1.496;2023-04-02T21:56:26;6.53;;;2.20;;
73919;SDS011;62266;53.348;-1.496;2023-04-02T21:59:15;6.60;;;1.85;;
73919;SDS011;62266;53.348;-1.496;2023-04-02T22:02:00;7.90;;;3.03;;
73919;SDS011;62266;53.348;-1.496;2023-04-02T22:04:44;6.10;;;2.83;;
73919;SDS011;62266;53.348;-1.496;2023-04-02T22:07:29;8.48;;;3.10;;
73919;SDS011;62266;53.348;-1.496;2023-04-02T22:10:22;8.45;;;3.22;;
73919;SDS011;62266;53.348;-1.496;2023-04-02T22:13:11;5.78;;;2.88;;
73919;SDS011;62266;53.348;-1.496;2023-04-02T22:16:02;8.90;;;3.00;;
73919;SDS011;62266;53.348;-1.496;2023-04-02T22:19:00;6.68;;;2.85;;
73919;SDS011;62266;53.348;-1.496;2023-04-02T22:21:47;7.68;;;3.60;;
73919;SDS011;62266;53.348;-1.496;2023-04-02T22:24:35;9.45;;;3.22;;
73919;SDS011;62266;53.348;-1.496;2023-04-02T22:27:22;6.78;;;3.38;;
73919;SDS011;62266;53.348;-1.496;2023-04-02T22:30:07;6.00;;;3.13;;
73919;SDS011;62266;53.348;-1.496;2023-04-02T22:32:58;7.38;;;3.20;;
73919;SDS011;62266;53.348;-1.496;2023-04-02T22:35:48;7.45;;;3.95;;
73919;SDS011;62266;53.348;-1.496;2023-04-02T22:38:34;8.32;;;3.72;;
73919;SDS011;62266;53.348;-1.496;2023-04-02T22:41:26;12.25;;;4.20;;
73919;SDS011;62266;53.348;-1.496;2023-04-02T22:44:12;9.77;;;3.30;;
73919;SDS011;62266;53.348;-1.496;2023-04-02T22:46:56;9.52;;;3.60;;
73919;SDS011;62266;53.348;-1.496;2023-04-02T22:49:43;9.57;;;3.85;;
73919;SDS011;62266;53.348;-1.496;2023-04-02T22:52:27;12.20;;;4.30;;
73919;SDS011;62266;53.348;-1.496;2023-04-02T22:55:12;12.15;;;4.07;;
73919;SDS011;62266;53.348;-1.496;2023-04-02T22:58:01;6.93;;;3.80;;
73919;SDS011;62266;53.348;-1.496;2023-04-02T23:00:45;8.48;;;3.45;;
73919;SDS011;62266;53.348;-1.496;2023-04-02T23:03:30;7.50;;;3.83;;
73919;SDS011;62266;53.348;-1.496;2023-04-02T23:06:15;6.75;;;3.75;;
73919;SDS011;62266;53.348;-1.496;2023-04-02T23:09:00;10.27;;;3.80;;
73919;SDS011;62266;53.348;-1.496;2023-04-02T23:11:45;5.43;;;3.53;;
73919;SDS011;62266;53.348;-1.496;2023-04-02T23:14:29;7.22;;;3.75;;
73919;SDS011;62266;53.348;-1.496;2023-04-02T23:17:14;8.32;;;3.92;;
73919;SDS011;62266;53.348;-1.496;2023-04-02T23:19:59;7.93;;;3.50;;
73919;SDS011;62266;53.348;-1.496;2023-04-02T23:22:44;7.10;;;3.20;;
73919;SDS011;62266;53.348;-1.496;2023-04-02T23:25:28;6.60;;;3.30;;
73919;SDS011;62266;53.348;-1.496;2023-04-02T23:28:12;9.27;;;3.47;;
73919;SDS011;62266;53.348;-1.496;2023-04-02T23:30:56;9.30;;;3.78;;
73919;SDS011;62266;53.348;-1.496;2023-04-02T23:33:41;7.25;;;3.95;;
73919;SDS011;62266;53.348;-1.496;2023-04-02T23:36:26;7.10;;;3.60;;
73919;SDS011;62266;53.348;-1.496;2023-04-02T23:39:12;6.47;;;3.67;;
73919;SDS011;62266;53.348;-1.496;2023-04-02T23:41:57;9.25;;;3.40;;
73919;SDS011;62266;53.348;-1.496;2023-04-02T23:44:41;6.68;;;3.80;;
73919;SDS011;62266;53.348;-1.496;2023-04-02T23:47:28;7.53;;;3.70;;
73919;SDS011;62266;53.348;-1.496;2023-04-02T23:50:12;9.65;;;3.72;;
73919;SDS011;62266;53.348;-1.496;2023-04-02T23:52:57;11.47;;;4.03;;
73919;SDS011;62266;53.348;-1.496;2023-04-02T23:55:44;6.72;;;3.40;;
73919;SDS011;62266;53.348;-1.496;2023-04-02T23:58:29;7.18;;;3.58;;
